LIED

Details ICAO LIED (DCI)
Name DECIMOMANNU
Region Italy
Timezone Europe/Rome (UTC+2.0)
Plans Departing 13
Arriving 25
Stats Elevation 100 ft / 30 m (AMSL)
Location 39.353939° 8.972494°
Runways 2
Magnetic Variation 2.271° E
Sunrise 2017-10-21 05:41:15 UTC / 2017-10-21 07:41:15 Local
Sunset 2017-10-21 16:38:29 UTC / 2017-10-21 18:38:29 Local
Advertisement - Login to hide

Runways

ID Width Length Bearing (true) Bearing (mag) Surface Threshold Offset Overrun Length
17L 148 ft / 45 m 9,799 ft / 2,987 m 167.21° 164.94° Asphalt 494 ft / 151 m 0 ft / 0 m
17R 74 ft / 23 m 8,580 ft / 2,615 m 167.00° 164.73° Asphalt 0 ft / 0 m 0 ft / 0 m
35L 74 ft / 23 m 8,580 ft / 2,615 m 347.00° 344.73° Asphalt 0 ft / 0 m 0 ft / 0 m
35R 148 ft / 45 m 9,799 ft / 2,987 m 347.21° 344.94° Asphalt 495 ft / 151 m 0 ft / 0 m

Map

Weather


0- 5 10 15 20 25 30 35+ Temperature / ° C

Clouds and Precipitation
Forecast for 2017-10-21 06:00 UTC. Updated an hour ago

Ground ~20,000 ft ~40,000 ft Winds

METAR

LIED 210555Z 31002KT 7000 FEW008 14/11 Q1020 RMK FEW VIS MIN 7000 WIND THR35 32002KT WIND THR17 /////KT WHT

TAF

Not found

Frequencies

Tower 122.10 MHz TWR
Approach 118.40 MHz CAGLIARI APP
Approach 118.75 MHz CAGLIARI APP
Warning: Do not use this data for real-world aviation or navigation. No guarantee of current accuracy is given.